sensor_id;sensor_type;location;lat;lon;timestamp;P1;durP1;ratioP1;P2;durP2;ratioP2
52956;SDS011;38819;42.692;23.342;2023-05-07T00:01:42;21.83;;;12.25;;
52956;SDS011;38819;42.692;23.342;2023-05-07T00:04:08;23.95;;;12.85;;
52956;SDS011;38819;42.692;23.342;2023-05-07T00:06:33;16.67;;;11.55;;
52956;SDS011;38819;42.692;23.342;2023-05-07T00:08:59;19.13;;;12.48;;
52956;SDS011;38819;42.692;23.342;2023-05-07T00:11:25;18.07;;;11.97;;
52956;SDS011;38819;42.692;23.342;2023-05-07T00:13:51;22.65;;;12.10;;
52956;SDS011;38819;42.692;23.342;2023-05-07T00:16:17;19.08;;;13.15;;
52956;SDS011;38819;42.692;23.342;2023-05-07T00:18:42;22.77;;;13.35;;
52956;SDS011;38819;42.692;23.342;2023-05-07T00:21:08;19.98;;;13.02;;
52956;SDS011;38819;42.692;23.342;2023-05-07T00:23:33;20.25;;;13.07;;
52956;SDS011;38819;42.692;23.342;2023-05-07T00:25:59;23.67;;;13.70;;
52956;SDS011;38819;42.692;23.342;2023-05-07T00:28:24;19.55;;;12.20;;
52956;SDS011;38819;42.692;23.342;2023-05-07T00:30:49;19.52;;;13.65;;
52956;SDS011;38819;42.692;23.342;2023-05-07T00:33:15;18.70;;;12.98;;
52956;SDS011;38819;42.692;23.342;2023-05-07T00:35:41;18.67;;;12.40;;
52956;SDS011;38819;42.692;23.342;2023-05-07T00:38:07;18.85;;;13.05;;
52956;SDS011;38819;42.692;23.342;2023-05-07T00:40:33;16.42;;;12.23;;
52956;SDS011;38819;42.692;23.342;2023-05-07T00:42:58;18.33;;;13.65;;
52956;SDS011;38819;42.692;23.342;2023-05-07T00:45:28;23.60;;;12.70;;
52956;SDS011;38819;42.692;23.342;2023-05-07T00:47:54;18.95;;;12.45;;
52956;SDS011;38819;42.692;23.342;2023-05-07T00:50:20;22.80;;;13.55;;
52956;SDS011;38819;42.692;23.342;2023-05-07T00:52:47;20.05;;;13.93;;
52956;SDS011;38819;42.692;23.342;2023-05-07T00:55:12;17.77;;;12.25;;
52956;SDS011;38819;42.692;23.342;2023-05-07T00:57:40;17.60;;;12.73;;
52956;SDS011;38819;42.692;23.342;2023-05-07T01:00:06;19.42;;;13.23;;
52956;SDS011;38819;42.692;23.342;2023-05-07T01:04:59;17.85;;;11.50;;
52956;SDS011;38819;42.692;23.342;2023-05-07T01:07:25;16.35;;;12.02;;
52956;SDS011;38819;42.692;23.342;2023-05-07T01:09:52;24.60;;;12.02;;
52956;SDS011;38819;42.692;23.342;2023-05-07T01:12:18;16.92;;;11.70;;
52956;SDS011;38819;42.692;23.342;2023-05-07T01:14:43;14.40;;;11.23;;
52956;SDS011;38819;42.692;23.342;2023-05-07T01:17:09;17.77;;;11.40;;
52956;SDS011;38819;42.692;23.342;2023-05-07T01:19:34;16.10;;;10.27;;
52956;SDS011;38819;42.692;23.342;2023-05-07T01:22:03;18.33;;;11.63;;
52956;SDS011;38819;42.692;23.342;2023-05-07T01:24:33;15.40;;;10.85;;
52956;SDS011;38819;42.692;23.342;2023-05-07T01:27:01;15.95;;;11.02;;
52956;SDS011;38819;42.692;23.342;2023-05-07T01:29:27;14.82;;;10.68;;
52956;SDS011;38819;42.692;23.342;2023-05-07T01:31:53;15.73;;;11.27;;
52956;SDS011;38819;42.692;23.342;2023-05-07T01:34:21;18.80;;;10.82;;
52956;SDS011;38819;42.692;23.342;2023-05-07T01:36:48;20.10;;;10.88;;
52956;SDS011;38819;42.692;23.342;2023-05-07T01:39:14;19.67;;;11.98;;
52956;SDS011;38819;42.692;23.342;2023-05-07T01:41:40;19.30;;;11.57;;
52956;SDS011;38819;42.692;23.342;2023-05-07T01:44:07;15.77;;;11.25;;
52956;SDS011;38819;42.692;23.342;2023-05-07T01:46:35;15.88;;;9.68;;
52956;SDS011;38819;42.692;23.342;2023-05-07T01:49:00;18.05;;;9.32;;
52956;SDS011;38819;42.692;23.342;2023-05-07T01:51:26;12.18;;;6.80;;
52956;SDS011;38819;42.692;23.342;2023-05-07T01:53:52;10.60;;;6.63;;
52956;SDS011;38819;42.692;23.342;2023-05-07T01:56:18;8.43;;;6.78;;
52956;SDS011;38819;42.692;23.342;2023-05-07T01:58:44;10.68;;;6.95;;
52956;SDS011;38819;42.692;23.342;2023-05-07T02:01:11;7.20;;;6.35;;
52956;SDS011;38819;42.692;23.342;2023-05-07T02:03:37;8.93;;;7.13;;
52956;SDS011;38819;42.692;23.342;2023-05-07T02:06:03;11.15;;;6.68;;
52956;SDS011;38819;42.692;23.342;2023-05-07T02:08:28;10.48;;;6.50;;
52956;SDS011;38819;42.692;23.342;2023-05-07T02:10:54;8.50;;;6.07;;
52956;SDS011;38819;42.692;23.342;2023-05-07T02:13:19;8.45;;;6.72;;
52956;SDS011;38819;42.692;23.342;2023-05-07T02:15:47;10.73;;;6.47;;
52956;SDS011;38819;42.692;23.342;2023-05-07T02:18:15;7.95;;;6.55;;
52956;SDS011;38819;42.692;23.342;2023-05-07T02:20:41;12.82;;;6.18;;
52956;SDS011;38819;42.692;23.342;2023-05-07T02:23:06;9.55;;;6.45;;
52956;SDS011;38819;42.692;23.342;2023-05-07T02:25:32;8.68;;;6.95;;
52956;SDS011;38819;42.692;23.342;2023-05-07T02:27:57;10.43;;;6.72;;
52956;SDS011;38819;42.692;23.342;2023-05-07T02:30:23;10.85;;;6.88;;
52956;SDS011;38819;42.692;23.342;2023-05-07T02:32:48;13.52;;;7.10;;
52956;SDS011;38819;42.692;23.342;2023-05-07T02:35:14;11.23;;;7.35;;
52956;SDS011;38819;42.692;23.342;2023-05-07T02:37:40;8.48;;;7.07;;
52956;SDS011;38819;42.692;23.342;2023-05-07T02:40:05;10.23;;;8.05;;
52956;SDS011;38819;42.692;23.342;2023-05-07T02:42:31;11.48;;;8.38;;
52956;SDS011;38819;42.692;23.342;2023-05-07T02:44:57;11.18;;;8.85;;
52956;SDS011;38819;42.692;23.342;2023-05-07T02:47:22;13.00;;;9.07;;
52956;SDS011;38819;42.692;23.342;2023-05-07T02:49:47;12.88;;;8.20;;
52956;SDS011;38819;42.692;23.342;2023-05-07T02:52:13;11.15;;;9.55;;
52956;SDS011;38819;42.692;23.342;2023-05-07T02:54:38;15.75;;;9.82;;
52956;SDS011;38819;42.692;23.342;2023-05-07T02:57:04;11.50;;;9.85;;
52956;SDS011;38819;42.692;23.342;2023-05-07T02:59:29;19.10;;;10.30;;
52956;SDS011;38819;42.692;23.342;2023-05-07T03:01:55;12.38;;;10.38;;
52956;SDS011;38819;42.692;23.342;2023-05-07T03:04:20;15.38;;;10.63;;
52956;SDS011;38819;42.692;23.342;2023-05-07T03:06:46;13.50;;;10.98;;
52956;SDS011;38819;42.692;23.342;2023-05-07T03:09:11;11.43;;;10.18;;
52956;SDS011;38819;42.692;23.342;2023-05-07T03:11:37;11.18;;;9.98;;
52956;SDS011;38819;42.692;23.342;2023-05-07T03:14:02;14.90;;;9.95;;
52956;SDS011;38819;42.692;23.342;2023-05-07T03:16:28;17.23;;;11.05;;
52956;SDS011;38819;42.692;23.342;2023-05-07T03:18:53;14.15;;;10.93;;
52956;SDS011;38819;42.692;23.342;2023-05-07T03:21:18;17.27;;;10.30;;
52956;SDS011;38819;42.692;23.342;2023-05-07T03:23:44;14.57;;;10.02;;
52956;SDS011;38819;42.692;23.342;2023-05-07T03:26:10;12.23;;;10.10;;
52956;SDS011;38819;42.692;23.342;2023-05-07T03:28:35;18.45;;;9.23;;
52956;SDS011;38819;42.692;23.342;2023-05-07T03:31:01;23.50;;;10.50;;
52956;SDS011;38819;42.692;23.342;2023-05-07T03:33:26;16.33;;;9.75;;
52956;SDS011;38819;42.692;23.342;2023-05-07T03:35:52;20.70;;;10.48;;
52956;SDS011;38819;42.692;23.342;2023-05-07T03:38:18;17.00;;;9.82;;
52956;SDS011;38819;42.692;23.342;2023-05-07T03:40:43;22.17;;;11.32;;
52956;SDS011;38819;42.692;23.342;2023-05-07T03:43:09;18.75;;;10.95;;
52956;SDS011;38819;42.692;23.342;2023-05-07T03:45:34;21.23;;;10.85;;
52956;SDS011;38819;42.692;23.342;2023-05-07T03:48:00;15.15;;;10.75;;
52956;SDS011;38819;42.692;23.342;2023-05-07T03:50:25;15.70;;;10.90;;
52956;SDS011;38819;42.692;23.342;2023-05-07T03:52:51;14.90;;;10.98;;
52956;SDS011;38819;42.692;23.342;2023-05-07T03:55:16;21.15;;;10.80;;
52956;SDS011;38819;42.692;23.342;2023-05-07T03:57:42;16.13;;;10.82;;
52956;SDS011;38819;42.692;23.342;2023-05-07T04:00:07;14.73;;;11.13;;
52956;SDS011;38819;42.692;23.342;2023-05-07T04:02:33;14.23;;;10.27;;
52956;SDS011;38819;42.692;23.342;2023-05-07T04:04:59;15.75;;;11.25;;
52956;SDS011;38819;42.692;23.342;2023-05-07T04:07:24;26.17;;;11.77;;
52956;SDS011;38819;42.692;23.342;2023-05-07T04:09:50;20.75;;;10.60;;
52956;SDS011;38819;42.692;23.342;2023-05-07T04:12:15;14.93;;;10.27;;
52956;SDS011;38819;42.692;23.342;2023-05-07T04:14:41;24.48;;;10.07;;
52956;SDS011;38819;42.692;23.342;2023-05-07T04:17:06;16.50;;;10.65;;
52956;SDS011;38819;42.692;23.342;2023-05-07T04:19:34;16.25;;;11.95;;
52956;SDS011;38819;42.692;23.342;2023-05-07T04:22:00;15.48;;;10.95;;
52956;SDS011;38819;42.692;23.342;2023-05-07T04:24:25;17.45;;;10.75;;
52956;SDS011;38819;42.692;23.342;2023-05-07T04:26:51;14.90;;;10.40;;
52956;SDS011;38819;42.692;23.342;2023-05-07T04:29:17;15.07;;;10.85;;
52956;SDS011;38819;42.692;23.342;2023-05-07T04:31:43;16.17;;;10.80;;
52956;SDS011;38819;42.692;23.342;2023-05-07T04:34:09;17.40;;;9.80;;
52956;SDS011;38819;42.692;23.342;2023-05-07T04:36:36;13.73;;;10.70;;
52956;SDS011;38819;42.692;23.342;2023-05-07T04:39:03;15.77;;;10.85;;
52956;SDS011;38819;42.692;23.342;2023-05-07T04:41:28;18.33;;;10.88;;
52956;SDS011;38819;42.692;23.342;2023-05-07T04:43:54;18.75;;;11.23;;
52956;SDS011;38819;42.692;23.342;2023-05-07T04:46:19;16.77;;;10.95;;
52956;SDS011;38819;42.692;23.342;2023-05-07T04:48:45;12.63;;;10.73;;
52956;SDS011;38819;42.692;23.342;2023-05-07T04:51:10;17.52;;;11.27;;
52956;SDS011;38819;42.692;23.342;2023-05-07T04:53:36;16.58;;;11.25;;
52956;SDS011;38819;42.692;23.342;2023-05-07T04:56:02;17.55;;;10.18;;
52956;SDS011;38819;42.692;23.342;2023-05-07T04:58:28;15.60;;;10.38;;
52956;SDS011;38819;42.692;23.342;2023-05-07T05:00:56;17.23;;;10.50;;
52956;SDS011;38819;42.692;23.342;2023-05-07T05:03:22;12.32;;;9.73;;
52956;SDS011;38819;42.692;23.342;2023-05-07T05:05:49;14.10;;;9.70;;
52956;SDS011;38819;42.692;23.342;2023-05-07T05:08:17;15.15;;;9.43;;
52956;SDS011;38819;42.692;23.342;2023-05-07T05:10:42;17.48;;;9.60;;
52956;SDS011;38819;42.692;23.342;2023-05-07T05:13:08;11.95;;;9.70;;
52956;SDS011;38819;42.692;23.342;2023-05-07T05:15:34;11.75;;;9.25;;
52956;SDS011;38819;42.692;23.342;2023-05-07T05:18:00;13.45;;;10.30;;
52956;SDS011;38819;42.692;23.342;2023-05-07T05:20:26;13.48;;;10.45;;
52956;SDS011;38819;42.692;23.342;2023-05-07T05:22:51;20.60;;;11.32;;
52956;SDS011;38819;42.692;23.342;2023-05-07T05:25:17;14.23;;;10.35;;
52956;SDS011;38819;42.692;23.342;2023-05-07T05:27:42;14.98;;;11.52;;
52956;SDS011;38819;42.692;23.342;2023-05-07T05:30:08;15.27;;;11.13;;
52956;SDS011;38819;42.692;23.342;2023-05-07T05:32:33;12.98;;;11.40;;
52956;SDS011;38819;42.692;23.342;2023-05-07T05:34:59;15.90;;;11.32;;
52956;SDS011;38819;42.692;23.342;2023-05-07T05:37:25;15.75;;;11.25;;
52956;SDS011;38819;42.692;23.342;2023-05-07T05:39:50;14.45;;;11.52;;
52956;SDS011;38819;42.692;23.342;2023-05-07T05:42:15;15.07;;;11.43;;
52956;SDS011;38819;42.692;23.342;2023-05-07T05:44:41;16.45;;;11.90;;
52956;SDS011;38819;42.692;23.342;2023-05-07T05:47:06;13.73;;;10.45;;
52956;SDS011;38819;42.692;23.342;2023-05-07T05:49:32;14.43;;;11.27;;
52956;SDS011;38819;42.692;23.342;2023-05-07T05:51:57;14.23;;;11.65;;
52956;SDS011;38819;42.692;23.342;2023-05-07T05:54:22;13.75;;;11.40;;
52956;SDS011;38819;42.692;23.342;2023-05-07T05:56:48;15.48;;;11.32;;
52956;SDS011;38819;42.692;23.342;2023-05-07T05:59:14;16.35;;;11.82;;
52956;SDS011;38819;42.692;23.342;2023-05-07T06:01:39;15.05;;;11.98;;
52956;SDS011;38819;42.692;23.342;2023-05-07T06:04:05;15.48;;;11.45;;
52956;SDS011;38819;42.692;23.342;2023-05-07T06:06:31;18.17;;;12.65;;
52956;SDS011;38819;42.692;23.342;2023-05-07T06:08:56;15.02;;;11.73;;
52956;SDS011;38819;42.692;23.342;2023-05-07T06:11:22;16.42;;;11.40;;
52956;SDS011;38819;42.692;23.342;2023-05-07T06:13:47;13.98;;;11.77;;
52956;SDS011;38819;42.692;23.342;2023-05-07T06:16:13;20.55;;;11.60;;
52956;SDS011;38819;42.692;23.342;2023-05-07T06:18:40;17.08;;;11.93;;
52956;SDS011;38819;42.692;23.342;2023-05-07T06:21:05;17.67;;;11.52;;
52956;SDS011;38819;42.692;23.342;2023-05-07T06:23:30;21.83;;;10.95;;
52956;SDS011;38819;42.692;23.342;2023-05-07T06:25:56;15.60;;;11.43;;
52956;SDS011;38819;42.692;23.342;2023-05-07T06:28:21;20.77;;;11.77;;
52956;SDS011;38819;42.692;23.342;2023-05-07T06:30:47;15.52;;;11.25;;
52956;SDS011;38819;42.692;23.342;2023-05-07T06:35:40;13.10;;;11.48;;
52956;SDS011;38819;42.692;23.342;2023-05-07T06:38:05;18.33;;;12.75;;
52956;SDS011;38819;42.692;23.342;2023-05-07T06:40:30;17.08;;;12.63;;
52956;SDS011;38819;42.692;23.342;2023-05-07T06:42:56;16.27;;;12.88;;
52956;SDS011;38819;42.692;23.342;2023-05-07T06:45:21;15.15;;;12.38;;
52956;SDS011;38819;42.692;23.342;2023-05-07T06:47:47;14.35;;;11.93;;
52956;SDS011;38819;42.692;23.342;2023-05-07T06:50:12;16.58;;;13.30;;
52956;SDS011;38819;42.692;23.342;2023-05-07T06:52:38;21.65;;;12.85;;
52956;SDS011;38819;42.692;23.342;2023-05-07T06:55:06;16.98;;;12.05;;
52956;SDS011;38819;42.692;23.342;2023-05-07T06:57:41;15.02;;;11.63;;
52956;SDS011;38819;42.692;23.342;2023-05-07T07:00:07;16.15;;;12.38;;
52956;SDS011;38819;42.692;23.342;2023-05-07T07:02:34;27.83;;;12.88;;
52956;SDS011;38819;42.692;23.342;2023-05-07T07:04:59;17.52;;;13.10;;
52956;SDS011;38819;42.692;23.342;2023-05-07T07:07:24;17.52;;;12.80;;
52956;SDS011;38819;42.692;23.342;2023-05-07T07:09:50;14.82;;;11.32;;
52956;SDS011;38819;42.692;23.342;2023-05-07T07:12:16;15.93;;;12.25;;
52956;SDS011;38819;42.692;23.342;2023-05-07T07:14:42;12.82;;;11.27;;
52956;SDS011;38819;42.692;23.342;2023-05-07T07:17:07;17.05;;;11.60;;
52956;SDS011;38819;42.692;23.342;2023-05-07T07:19:32;16.38;;;11.85;;
52956;SDS011;38819;42.692;23.342;2023-05-07T07:21:58;16.90;;;12.02;;
52956;SDS011;38819;42.692;23.342;2023-05-07T07:24:23;19.83;;;12.40;;
52956;SDS011;38819;42.692;23.342;2023-05-07T07:26:48;15.63;;;11.65;;
52956;SDS011;38819;42.692;23.342;2023-05-07T07:29:14;18.13;;;11.10;;
52956;SDS011;38819;42.692;23.342;2023-05-07T07:31:39;21.08;;;11.82;;
52956;SDS011;38819;42.692;23.342;2023-05-07T07:34:05;14.60;;;11.02;;
52956;SDS011;38819;42.692;23.342;2023-05-07T07:36:30;15.07;;;11.95;;
52956;SDS011;38819;42.692;23.342;2023-05-07T07:38:56;14.70;;;11.30;;
52956;SDS011;38819;42.692;23.342;2023-05-07T07:41:21;13.45;;;11.60;;
52956;SDS011;38819;42.692;23.342;2023-05-07T07:43:47;16.77;;;12.07;;
52956;SDS011;38819;42.692;23.342;2023-05-07T07:46:12;18.52;;;10.93;;
52956;SDS011;38819;42.692;23.342;2023-05-07T07:48:37;13.93;;;10.45;;
52956;SDS011;38819;42.692;23.342;2023-05-07T07:51:03;14.43;;;11.70;;
52956;SDS011;38819;42.692;23.342;2023-05-07T07:53:29;14.13;;;10.45;;
52956;SDS011;38819;42.692;23.342;2023-05-07T07:55:55;18.38;;;11.13;;
52956;SDS011;38819;42.692;23.342;2023-05-07T07:58:20;15.63;;;9.88;;
52956;SDS011;38819;42.692;23.342;2023-05-07T08:00:47;15.50;;;9.98;;
52956;SDS011;38819;42.692;23.342;2023-05-07T08:03:12;14.57;;;10.82;;
52956;SDS011;38819;42.692;23.342;2023-05-07T08:05:38;13.23;;;9.90;;
52956;SDS011;38819;42.692;23.342;2023-05-07T08:08:03;15.05;;;10.30;;
52956;SDS011;38819;42.692;23.342;2023-05-07T08:10:29;13.07;;;9.70;;
52956;SDS011;38819;42.692;23.342;2023-05-07T08:12:54;19.85;;;10.20;;
52956;SDS011;38819;42.692;23.342;2023-05-07T08:15:20;12.93;;;10.13;;
52956;SDS011;38819;42.692;23.342;2023-05-07T08:17:45;13.63;;;10.02;;
52956;SDS011;38819;42.692;23.342;2023-05-07T08:20:11;16.15;;;10.43;;
52956;SDS011;38819;42.692;23.342;2023-05-07T08:22:36;16.58;;;9.02;;
52956;SDS011;38819;42.692;23.342;2023-05-07T08:25:02;12.85;;;9.65;;
52956;SDS011;38819;42.692;23.342;2023-05-07T08:27:28;12.23;;;8.98;;
52956;SDS011;38819;42.692;23.342;2023-05-07T08:29:53;17.15;;;9.25;;
52956;SDS011;38819;42.692;23.342;2023-05-07T08:32:19;16.40;;;8.38;;
52956;SDS011;38819;42.692;23.342;2023-05-07T08:34:45;9.02;;;8.13;;
52956;SDS011;38819;42.692;23.342;2023-05-07T08:37:11;19.55;;;10.48;;
52956;SDS011;38819;42.692;23.342;2023-05-07T08:39:36;14.27;;;8.32;;
52956;SDS011;38819;42.692;23.342;2023-05-07T08:42:01;13.18;;;8.73;;
52956;SDS011;38819;42.692;23.342;2023-05-07T08:44:29;13.23;;;8.35;;
52956;SDS011;38819;42.692;23.342;2023-05-07T08:46:59;7.88;;;6.43;;
52956;SDS011;38819;42.692;23.342;2023-05-07T08:49:27;11.70;;;6.30;;
52956;SDS011;38819;42.692;23.342;2023-05-07T08:51:53;9.05;;;6.55;;
52956;SDS011;38819;42.692;23.342;2023-05-07T08:54:18;8.25;;;6.15;;
52956;SDS011;38819;42.692;23.342;2023-05-07T08:56:45;11.38;;;7.20;;
52956;SDS011;38819;42.692;23.342;2023-05-07T08:59:11;11.10;;;7.38;;
52956;SDS011;38819;42.692;23.342;2023-05-07T09:01:36;10.23;;;6.10;;
52956;SDS011;38819;42.692;23.342;2023-05-07T09:04:03;9.32;;;6.30;;
52956;SDS011;38819;42.692;23.342;2023-05-07T09:06:29;11.25;;;6.53;;
52956;SDS011;38819;42.692;23.342;2023-05-07T09:08:55;9.75;;;6.43;;
52956;SDS011;38819;42.692;23.342;2023-05-07T09:11:23;11.38;;;7.35;;
52956;SDS011;38819;42.692;23.342;2023-05-07T09:13:53;9.02;;;6.00;;
52956;SDS011;38819;42.692;23.342;2023-05-07T09:16:20;11.85;;;6.10;;
52956;SDS011;38819;42.692;23.342;2023-05-07T09:18:46;11.60;;;6.13;;
52956;SDS011;38819;42.692;23.342;2023-05-07T09:21:16;9.40;;;5.88;;
52956;SDS011;38819;42.692;23.342;2023-05-07T09:23:42;9.88;;;5.30;;
52956;SDS011;38819;42.692;23.342;2023-05-07T09:26:08;6.97;;;5.15;;
52956;SDS011;38819;42.692;23.342;2023-05-07T09:28:42;8.20;;;5.53;;
52956;SDS011;38819;42.692;23.342;2023-05-07T09:31:08;6.43;;;4.47;;
52956;SDS011;38819;42.692;23.342;2023-05-07T09:33:34;8.25;;;5.72;;
52956;SDS011;38819;42.692;23.342;2023-05-07T09:36:03;9.27;;;5.57;;
52956;SDS011;38819;42.692;23.342;2023-05-07T09:38:33;11.13;;;5.47;;
52956;SDS011;38819;42.692;23.342;2023-05-07T09:41:02;6.95;;;3.50;;
52956;SDS011;38819;42.692;23.342;2023-05-07T09:43:34;5.15;;;3.75;;
52956;SDS011;38819;42.692;23.342;2023-05-07T09:46:06;10.10;;;5.32;;
52956;SDS011;38819;42.692;23.342;2023-05-07T09:48:36;6.85;;;3.72;;
52956;SDS011;38819;42.692;23.342;2023-05-07T09:51:05;5.20;;;3.83;;
52956;SDS011;38819;42.692;23.342;2023-05-07T09:53:39;8.73;;;4.63;;
52956;SDS011;38819;42.692;23.342;2023-05-07T09:56:05;10.07;;;3.43;;
52956;SDS011;38819;42.692;23.342;2023-05-07T09:58:32;4.03;;;3.22;;
52956;SDS011;38819;42.692;23.342;2023-05-07T10:01:02;7.72;;;3.70;;
52956;SDS011;38819;42.692;23.342;2023-05-07T10:03:27;4.50;;;3.47;;
52956;SDS011;38819;42.692;23.342;2023-05-07T10:05:57;3.90;;;3.38;;
52956;SDS011;38819;42.692;23.342;2023-05-07T10:08:23;7.40;;;4.17;;
52956;SDS011;38819;42.692;23.342;2023-05-07T10:10:49;4.47;;;3.30;;
52956;SDS011;38819;42.692;23.342;2023-05-07T10:13:15;4.35;;;3.25;;
52956;SDS011;38819;42.692;23.342;2023-05-07T10:15:42;5.38;;;3.28;;
52956;SDS011;38819;42.692;23.342;2023-05-07T10:18:07;3.78;;;2.90;;
52956;SDS011;38819;42.692;23.342;2023-05-07T10:20:34;3.03;;;2.70;;
52956;SDS011;38819;42.692;23.342;2023-05-07T10:23:01;4.70;;;3.40;;
52956;SDS011;38819;42.692;23.342;2023-05-07T10:25:30;3.78;;;3.33;;
52956;SDS011;38819;42.692;23.342;2023-05-07T10:27:57;7.40;;;2.97;;
52956;SDS011;38819;42.692;23.342;2023-05-07T10:30:38;4.15;;;3.17;;
52956;SDS011;38819;42.692;23.342;2023-05-07T10:33:05;17.85;;;3.17;;
52956;SDS011;38819;42.692;23.342;2023-05-07T10:35:40;3.17;;;2.88;;
52956;SDS011;38819;42.692;23.342;2023-05-07T10:38:07;3.30;;;2.80;;
52956;SDS011;38819;42.692;23.342;2023-05-07T10:40:33;4.07;;;3.47;;
52956;SDS011;38819;42.692;23.342;2023-05-07T10:45:26;3.40;;;2.80;;
52956;SDS011;38819;42.692;23.342;2023-05-07T10:50:37;3.22;;;2.70;;
52956;SDS011;38819;42.692;23.342;2023-05-07T10:55:46;5.13;;;2.97;;
52956;SDS011;38819;42.692;23.342;2023-05-07T11:01:01;6.20;;;3.55;;
52956;SDS011;38819;42.692;23.342;2023-05-07T11:03:27;3.90;;;3.30;;
52956;SDS011;38819;42.692;23.342;2023-05-07T11:06:15;6.18;;;3.33;;
52956;SDS011;38819;42.692;23.342;2023-05-07T11:09:02;16.08;;;4.65;;
52956;SDS011;38819;42.692;23.342;2023-05-07T11:11:45;4.38;;;2.70;;
52956;SDS011;38819;42.692;23.342;2023-05-07T11:14:13;9.18;;;3.08;;
52956;SDS011;38819;42.692;23.342;2023-05-07T11:16:39;4.85;;;3.10;;
52956;SDS011;38819;42.692;23.342;2023-05-07T11:19:06;4.35;;;2.67;;
52956;SDS011;38819;42.692;23.342;2023-05-07T11:21:35;5.80;;;3.30;;
52956;SDS011;38819;42.692;23.342;2023-05-07T11:24:02;6.47;;;3.03;;
52956;SDS011;38819;42.692;23.342;2023-05-07T11:26:30;2.72;;;2.53;;
52956;SDS011;38819;42.692;23.342;2023-05-07T11:29:10;4.95;;;3.08;;
52956;SDS011;38819;42.692;23.342;2023-05-07T11:31:42;16.50;;;3.05;;
52956;SDS011;38819;42.692;23.342;2023-05-07T11:34:08;8.23;;;3.10;;
52956;SDS011;38819;42.692;23.342;2023-05-07T11:36:34;6.63;;;2.90;;
52956;SDS011;38819;42.692;23.342;2023-05-07T11:39:00;3.60;;;2.40;;
52956;SDS011;38819;42.692;23.342;2023-05-07T11:41:38;6.65;;;2.22;;
52956;SDS011;38819;42.692;23.342;2023-05-07T11:44:03;4.13;;;2.25;;
52956;SDS011;38819;42.692;23.342;2023-05-07T11:46:29;5.10;;;2.80;;
52956;SDS011;38819;42.692;23.342;2023-05-07T11:48:55;5.65;;;3.33;;
52956;SDS011;38819;42.692;23.342;2023-05-07T11:51:22;3.35;;;2.47;;
52956;SDS011;38819;42.692;23.342;2023-05-07T11:53:49;3.17;;;2.88;;
52956;SDS011;38819;42.692;23.342;2023-05-07T11:56:16;3.30;;;3.00;;
52956;SDS011;38819;42.692;23.342;2023-05-07T11:58:43;3.17;;;2.63;;
52956;SDS011;38819;42.692;23.342;2023-05-07T12:01:10;5.07;;;2.60;;
52956;SDS011;38819;42.692;23.342;2023-05-07T12:03:37;2.75;;;2.53;;
52956;SDS011;38819;42.692;23.342;2023-05-07T12:06:07;6.85;;;2.63;;
52956;SDS011;38819;42.692;23.342;2023-05-07T12:08:33;6.75;;;2.83;;
52956;SDS011;38819;42.692;23.342;2023-05-07T12:11:14;4.25;;;3.17;;
52956;SDS011;38819;42.692;23.342;2023-05-07T12:13:42;3.33;;;2.88;;
52956;SDS011;38819;42.692;23.342;2023-05-07T12:16:08;5.78;;;2.33;;
52956;SDS011;38819;42.692;23.342;2023-05-07T12:18:35;2.67;;;2.47;;
52956;SDS011;38819;42.692;23.342;2023-05-07T12:21:01;6.47;;;2.50;;
52956;SDS011;38819;42.692;23.342;2023-05-07T12:25:54;2.60;;;2.40;;
52956;SDS011;38819;42.692;23.342;2023-05-07T12:28:20;2.92;;;2.22;;
52956;SDS011;38819;42.692;23.342;2023-05-07T12:30:46;2.50;;;2.22;;
52956;SDS011;38819;42.692;23.342;2023-05-07T12:33:17;4.88;;;1.85;;
52956;SDS011;38819;42.692;23.342;2023-05-07T12:35:44;2.30;;;2.08;;
52956;SDS011;38819;42.692;23.342;2023-05-07T12:38:17;2.03;;;1.85;;
52956;SDS011;38819;42.692;23.342;2023-05-07T12:40:47;2.17;;;2.00;;
52956;SDS011;38819;42.692;23.342;2023-05-07T12:43:16;2.33;;;1.77;;
52956;SDS011;38819;42.692;23.342;2023-05-07T12:45:42;1.98;;;1.75;;
52956;SDS011;38819;42.692;23.342;2023-05-07T12:48:11;3.42;;;1.88;;
52956;SDS011;38819;42.692;23.342;2023-05-07T12:50:37;6.10;;;1.90;;
52956;SDS011;38819;42.692;23.342;2023-05-07T12:53:03;4.80;;;2.10;;
52956;SDS011;38819;42.692;23.342;2023-05-07T12:55:31;4.25;;;2.50;;
52956;SDS011;38819;42.692;23.342;2023-05-07T12:57:57;2.65;;;2.20;;
52956;SDS011;38819;42.692;23.342;2023-05-07T13:00:33;2.60;;;2.40;;
52956;SDS011;38819;42.692;23.342;2023-05-07T13:02:59;4.45;;;1.85;;
52956;SDS011;38819;42.692;23.342;2023-05-07T13:05:25;6.22;;;1.65;;
52956;SDS011;38819;42.692;23.342;2023-05-07T13:07:54;2.00;;;1.73;;
52956;SDS011;38819;42.692;23.342;2023-05-07T13:10:21;4.78;;;2.03;;
52956;SDS011;38819;42.692;23.342;2023-05-07T13:12:47;2.65;;;1.95;;
52956;SDS011;38819;42.692;23.342;2023-05-07T13:15:12;2.53;;;2.33;;
52956;SDS011;38819;42.692;23.342;2023-05-07T13:17:38;4.45;;;2.08;;
52956;SDS011;38819;42.692;23.342;2023-05-07T13:20:03;3.00;;;1.92;;
52956;SDS011;38819;42.692;23.342;2023-05-07T13:22:30;2.10;;;2.00;;
52956;SDS011;38819;42.692;23.342;2023-05-07T13:24:55;3.35;;;2.10;;
52956;SDS011;38819;42.692;23.342;2023-05-07T13:27:21;2.42;;;2.22;;
52956;SDS011;38819;42.692;23.342;2023-05-07T13:29:46;4.03;;;3.08;;
52956;SDS011;38819;42.692;23.342;2023-05-07T13:32:11;3.55;;;1.85;;
52956;SDS011;38819;42.692;23.342;2023-05-07T13:34:37;2.88;;;1.80;;
52956;SDS011;38819;42.692;23.342;2023-05-07T13:37:02;1.60;;;1.50;;
52956;SDS011;38819;42.692;23.342;2023-05-07T13:39:28;2.60;;;1.90;;
52956;SDS011;38819;42.692;23.342;2023-05-07T13:41:53;4.68;;;2.17;;
52956;SDS011;38819;42.692;23.342;2023-05-07T13:44:19;3.58;;;2.30;;
52956;SDS011;38819;42.692;23.342;2023-05-07T13:46:44;2.05;;;1.77;;
52956;SDS011;38819;42.692;23.342;2023-05-07T13:49:10;2.60;;;1.77;;
52956;SDS011;38819;42.692;23.342;2023-05-07T13:51:36;4.85;;;2.08;;
52956;SDS011;38819;42.692;23.342;2023-05-07T13:54:01;2.60;;;2.40;;
52956;SDS011;38819;42.692;23.342;2023-05-07T13:56:27;5.88;;;2.25;;
52956;SDS011;38819;42.692;23.342;2023-05-07T13:58:53;5.85;;;2.67;;
52956;SDS011;38819;42.692;23.342;2023-05-07T14:01:18;2.45;;;2.25;;
52956;SDS011;38819;42.692;23.342;2023-05-07T14:03:44;2.72;;;2.25;;
52956;SDS011;38819;42.692;23.342;2023-05-07T14:06:10;3.35;;;2.55;;
52956;SDS011;38819;42.692;23.342;2023-05-07T14:08:35;3.47;;;2.03;;
52956;SDS011;38819;42.692;23.342;2023-05-07T14:11:00;2.30;;;2.10;;
52956;SDS011;38819;42.692;23.342;2023-05-07T14:13:26;4.43;;;2.20;;
52956;SDS011;38819;42.692;23.342;2023-05-07T14:15:52;2.72;;;2.40;;
52956;SDS011;38819;42.692;23.342;2023-05-07T14:18:17;2.03;;;1.83;;
52956;SDS011;38819;42.692;23.342;2023-05-07T14:20:43;3.08;;;1.98;;
52956;SDS011;38819;42.692;23.342;2023-05-07T14:23:08;5.95;;;2.17;;
52956;SDS011;38819;42.692;23.342;2023-05-07T14:25:34;2.10;;;1.90;;
52956;SDS011;38819;42.692;23.342;2023-05-07T14:28:00;5.70;;;2.35;;
52956;SDS011;38819;42.692;23.342;2023-05-07T14:30:25;4.80;;;2.17;;
52956;SDS011;38819;42.692;23.342;2023-05-07T14:32:50;2.60;;;2.17;;
52956;SDS011;38819;42.692;23.342;2023-05-07T14:35:16;2.88;;;1.83;;